Portada
METAR-TAF:

METAR-TAF

Aeroports :

Kerteh, Malàisia

latitud: 04-32-15N, longitud: 103-25-36E, altitud: 5 m

Observació

L'informe es va fer fa 49 minuts, a les 21:00 UTC
Vent 3 kt del Sud-Est, variant entre Est/Nord-Est i Sud
Temperatura 25°C
Humitat 94%
Pressió 1008 hPa

METAR: WMKE 192100Z AUTO 14003KT 070V190 //// // ////// 25/24 Q1008

Hora: 05:49 (21:49 UTC)

Pronòstic

L'informe es va fer fa 10 hores i 49 minuts, a les 11:00 UTC
Pronòstic vàlid del 19 a les 12 UTC al 20 a les 12 UTC
Vent 3 kt amb direcció variable
Visibilitat 10 km o més
Escasses núvols a una alçada de 1500 ft
Evolucionant progressivament
l' 20 a les 00 UTC al 20 a les 02 UTC
Escasses núvols a una alçada de 1400 ft
Temporalment
l' 20 a les 07 UTC al 20 a les 10 UTC
Visibilitat: 7000 m
Escasses núvols a una alçada de 1700 ft, Cumulonimbus.
tempesta, pluja

TAF: WMKE 191100Z 1912/2012 VRB03KT 9999 FEW015 BECMG 2000/2002 FEW014 TEMPO 2007/2010 7000 -TSRA FEW017CB

Observacions i pronòstics meteorològics de més de 4000 aeroports (METAR i TAF).

Les estacions disponibles són els punts grocs i vermells al mapa.

Posi el ratolí al punt desitjat per veure el nom de l'estació.

Feu clic per veure les observacions i els pronòstics meteorològics.

Per canviar el mapa: feu clic els botons verds amb una creu de color negre per apropar; al botó verd amb un guió per allunyar la imatge; o en les fletxes verdes per a mapes adjacents.


METAR-TAF: